sensor_id;sensor_type;location;lat;lon;timestamp;P1;durP1;ratioP1;P2;durP2;ratioP2
55364;SDS011;41245;45.384;20.390;2022-12-07T00:01:28;398.08;;;62.70;;
55364;SDS011;41245;45.384;20.390;2022-12-07T00:03:59;343.17;;;56.30;;
55364;SDS011;41245;45.384;20.390;2022-12-07T00:06:30;386.83;;;53.10;;
55364;SDS011;41245;45.384;20.390;2022-12-07T00:08:57;389.48;;;53.80;;
55364;SDS011;41245;45.384;20.390;2022-12-07T00:11:24;685.53;;;79.60;;
55364;SDS011;41245;45.384;20.390;2022-12-07T00:13:54;261.85;;;46.30;;
55364;SDS011;41245;45.384;20.390;2022-12-07T00:16:28;355.65;;;61.97;;
55364;SDS011;41245;45.384;20.390;2022-12-07T00:18:55;620.22;;;79.95;;
55364;SDS011;41245;45.384;20.390;2022-12-07T00:21:22;370.10;;;61.72;;
55364;SDS011;41245;45.384;20.390;2022-12-07T00:23:50;319.25;;;57.55;;
55364;SDS011;41245;45.384;20.390;2022-12-07T00:26:18;339.40;;;63.95;;
55364;SDS011;41245;45.384;20.390;2022-12-07T00:28:53;307.50;;;54.83;;
55364;SDS011;41245;45.384;20.390;2022-12-07T00:31:21;524.28;;;75.85;;
55364;SDS011;41245;45.384;20.390;2022-12-07T00:33:49;401.48;;;65.75;;
55364;SDS011;41245;45.384;20.390;2022-12-07T00:36:16;457.52;;;67.28;;
55364;SDS011;41245;45.384;20.390;2022-12-07T00:38:43;457.00;;;66.10;;
55364;SDS011;41245;45.384;20.390;2022-12-07T00:43:36;313.05;;;52.58;;
55364;SDS011;41245;45.384;20.390;2022-12-07T00:46:02;220.43;;;42.83;;
55364;SDS011;41245;45.384;20.390;2022-12-07T00:48:28;221.77;;;42.15;;
55364;SDS011;41245;45.384;20.390;2022-12-07T00:50:54;372.23;;;55.03;;
55364;SDS011;41245;45.384;20.390;2022-12-07T00:53:20;241.68;;;47.92;;
55364;SDS011;41245;45.384;20.390;2022-12-07T00:55:46;243.50;;;42.20;;
55364;SDS011;41245;45.384;20.390;2022-12-07T00:58:12;135.70;;;32.58;;
55364;SDS011;41245;45.384;20.390;2022-12-07T01:00:38;273.20;;;44.05;;
55364;SDS011;41245;45.384;20.390;2022-12-07T01:03:06;132.43;;;29.58;;
55364;SDS011;41245;45.384;20.390;2022-12-07T01:05:33;121.15;;;32.83;;
55364;SDS011;41245;45.384;20.390;2022-12-07T01:07:59;200.70;;;37.85;;
55364;SDS011;41245;45.384;20.390;2022-12-07T01:10:25;161.77;;;33.40;;
55364;SDS011;41245;45.384;20.390;2022-12-07T01:12:51;126.22;;;31.67;;
55364;SDS011;41245;45.384;20.390;2022-12-07T01:15:16;114.25;;;33.00;;
55364;SDS011;41245;45.384;20.390;2022-12-07T01:17:42;138.88;;;32.22;;
55364;SDS011;41245;45.384;20.390;2022-12-07T01:20:08;153.02;;;34.20;;
55364;SDS011;41245;45.384;20.390;2022-12-07T01:22:38;102.90;;;28.17;;
55364;SDS011;41245;45.384;20.390;2022-12-07T01:27:31;79.10;;;23.73;;
55364;SDS011;41245;45.384;20.390;2022-12-07T01:29:58;108.07;;;29.88;;
55364;SDS011;41245;45.384;20.390;2022-12-07T01:32:23;129.77;;;28.63;;
55364;SDS011;41245;45.384;20.390;2022-12-07T01:34:49;113.72;;;27.10;;
55364;SDS011;41245;45.384;20.390;2022-12-07T01:37:15;130.05;;;29.45;;
55364;SDS011;41245;45.384;20.390;2022-12-07T01:39:40;77.10;;;26.42;;
55364;SDS011;41245;45.384;20.390;2022-12-07T01:42:10;100.07;;;29.52;;
55364;SDS011;41245;45.384;20.390;2022-12-07T01:47:56;122.72;;;30.25;;
55364;SDS011;41245;45.384;20.390;2022-12-07T01:50:24;64.07;;;24.85;;
55364;SDS011;41245;45.384;20.390;2022-12-07T01:52:52;69.37;;;26.90;;
55364;SDS011;41245;45.384;20.390;2022-12-07T01:55:20;89.22;;;27.85;;
55364;SDS011;41245;45.384;20.390;2022-12-07T01:57:50;50.63;;;25.65;;
55364;SDS011;41245;45.384;20.390;2022-12-07T02:00:19;73.95;;;27.13;;
55364;SDS011;41245;45.384;20.390;2022-12-07T02:02:53;66.13;;;28.60;;
55364;SDS011;41245;45.384;20.390;2022-12-07T02:05:22;58.60;;;27.90;;
55364;SDS011;41245;45.384;20.390;2022-12-07T02:07:50;52.08;;;25.60;;
55364;SDS011;41245;45.384;20.390;2022-12-07T02:12:51;67.30;;;28.45;;
55364;SDS011;41245;45.384;20.390;2022-12-07T02:15:20;59.65;;;26.73;;
55364;SDS011;41245;45.384;20.390;2022-12-07T02:34:41;64.85;;;28.02;;
55364;SDS011;41245;45.384;20.390;2022-12-07T02:40:01;53.35;;;25.35;;
55364;SDS011;41245;45.384;20.390;2022-12-07T02:42:40;58.47;;;26.00;;
55364;SDS011;41245;45.384;20.390;2022-12-07T02:45:15;54.00;;;26.58;;
55364;SDS011;41245;45.384;20.390;2022-12-07T02:47:45;58.08;;;25.98;;
55364;SDS011;41245;45.384;20.390;2022-12-07T02:50:17;59.17;;;25.70;;
55364;SDS011;41245;45.384;20.390;2022-12-07T02:52:46;54.95;;;25.20;;
55364;SDS011;41245;45.384;20.390;2022-12-07T02:55:12;57.42;;;25.83;;
55364;SDS011;41245;45.384;20.390;2022-12-07T03:01:08;55.03;;;23.48;;
55364;SDS011;41245;45.384;20.390;2022-12-07T03:03:58;52.60;;;23.70;;
55364;SDS011;41245;45.384;20.390;2022-12-07T03:06:39;59.58;;;25.25;;
55364;SDS011;41245;45.384;20.390;2022-12-07T03:09:27;57.67;;;25.70;;
55364;SDS011;41245;45.384;20.390;2022-12-07T03:12:10;63.70;;;28.17;;
55364;SDS011;41245;45.384;20.390;2022-12-07T03:14:45;56.58;;;25.80;;
55364;SDS011;41245;45.384;20.390;2022-12-07T03:17:19;64.38;;;27.83;;
55364;SDS011;41245;45.384;20.390;2022-12-07T03:19:51;69.22;;;29.48;;
55364;SDS011;41245;45.384;20.390;2022-12-07T03:22:21;63.55;;;28.98;;
55364;SDS011;41245;45.384;20.390;2022-12-07T03:24:58;71.68;;;29.65;;
55364;SDS011;41245;45.384;20.390;2022-12-07T03:27:30;64.05;;;28.55;;
55364;SDS011;41245;45.384;20.390;2022-12-07T03:30:02;73.50;;;30.92;;
55364;SDS011;41245;45.384;20.390;2022-12-07T03:35:03;70.45;;;30.55;;
55364;SDS011;41245;45.384;20.390;2022-12-07T03:37:44;65.05;;;28.05;;
55364;SDS011;41245;45.384;20.390;2022-12-07T03:43:02;68.72;;;29.02;;
55364;SDS011;41245;45.384;20.390;2022-12-07T03:45:32;71.22;;;30.98;;
55364;SDS011;41245;45.384;20.390;2022-12-07T03:48:03;64.78;;;29.17;;
55364;SDS011;41245;45.384;20.390;2022-12-07T03:53:09;66.07;;;30.20;;
55364;SDS011;41245;45.384;20.390;2022-12-07T03:55:41;67.60;;;28.52;;
55364;SDS011;41245;45.384;20.390;2022-12-07T03:58:11;76.97;;;29.65;;
55364;SDS011;41245;45.384;20.390;2022-12-07T04:00:40;69.30;;;26.65;;
55364;SDS011;41245;45.384;20.390;2022-12-07T04:03:07;67.35;;;30.30;;
55364;SDS011;41245;45.384;20.390;2022-12-07T04:05:33;72.13;;;29.63;;
55364;SDS011;41245;45.384;20.390;2022-12-07T04:07:59;65.25;;;29.88;;
55364;SDS011;41245;45.384;20.390;2022-12-07T04:10:25;56.70;;;28.27;;
55364;SDS011;41245;45.384;20.390;2022-12-07T04:12:50;68.22;;;29.65;;
55364;SDS011;41245;45.384;20.390;2022-12-07T04:15:16;63.17;;;29.42;;
55364;SDS011;41245;45.384;20.390;2022-12-07T04:17:42;74.95;;;30.45;;
55364;SDS011;41245;45.384;20.390;2022-12-07T04:20:08;73.30;;;30.65;;
55364;SDS011;41245;45.384;20.390;2022-12-07T04:22:34;59.47;;;26.95;;
55364;SDS011;41245;45.384;20.390;2022-12-07T04:25:00;68.68;;;29.17;;
55364;SDS011;41245;45.384;20.390;2022-12-07T04:27:25;70.53;;;29.85;;
55364;SDS011;41245;45.384;20.390;2022-12-07T04:29:51;61.65;;;29.10;;
55364;SDS011;41245;45.384;20.390;2022-12-07T04:32:17;64.22;;;26.85;;
55364;SDS011;41245;45.384;20.390;2022-12-07T04:34:43;65.10;;;27.35;;
55364;SDS011;41245;45.384;20.390;2022-12-07T04:37:08;58.08;;;27.98;;
55364;SDS011;41245;45.384;20.390;2022-12-07T04:39:34;62.88;;;29.77;;
55364;SDS011;41245;45.384;20.390;2022-12-07T04:42:00;54.00;;;27.02;;
55364;SDS011;41245;45.384;20.390;2022-12-07T04:44:26;61.45;;;27.50;;
55364;SDS011;41245;45.384;20.390;2022-12-07T04:46:53;58.55;;;28.65;;
55364;SDS011;41245;45.384;20.390;2022-12-07T04:49:20;62.00;;;28.23;;
55364;SDS011;41245;45.384;20.390;2022-12-07T04:51:46;61.85;;;29.20;;
55364;SDS011;41245;45.384;20.390;2022-12-07T04:54:13;61.63;;;29.38;;
55364;SDS011;41245;45.384;20.390;2022-12-07T04:56:39;60.35;;;29.73;;
55364;SDS011;41245;45.384;20.390;2022-12-07T04:59:05;64.10;;;31.05;;
55364;SDS011;41245;45.384;20.390;2022-12-07T05:01:32;74.40;;;31.13;;
55364;SDS011;41245;45.384;20.390;2022-12-07T05:03:58;65.20;;;31.02;;
55364;SDS011;41245;45.384;20.390;2022-12-07T05:06:24;65.05;;;31.70;;
55364;SDS011;41245;45.384;20.390;2022-12-07T05:08:50;71.95;;;33.58;;
55364;SDS011;41245;45.384;20.390;2022-12-07T05:11:16;71.68;;;32.63;;
55364;SDS011;41245;45.384;20.390;2022-12-07T05:14:01;62.13;;;30.10;;
55364;SDS011;41245;45.384;20.390;2022-12-07T05:16:28;55.83;;;29.50;;
55364;SDS011;41245;45.384;20.390;2022-12-07T05:18:53;55.75;;;29.20;;
55364;SDS011;41245;45.384;20.390;2022-12-07T05:21:19;59.53;;;29.30;;
55364;SDS011;41245;45.384;20.390;2022-12-07T05:23:45;52.45;;;27.83;;
55364;SDS011;41245;45.384;20.390;2022-12-07T05:26:11;55.83;;;27.27;;
55364;SDS011;41245;45.384;20.390;2022-12-07T05:28:37;54.67;;;28.10;;
55364;SDS011;41245;45.384;20.390;2022-12-07T05:31:02;51.17;;;26.48;;
55364;SDS011;41245;45.384;20.390;2022-12-07T05:33:28;51.65;;;26.42;;
55364;SDS011;41245;45.384;20.390;2022-12-07T05:35:54;56.10;;;28.35;;
55364;SDS011;41245;45.384;20.390;2022-12-07T05:38:20;49.42;;;25.70;;
55364;SDS011;41245;45.384;20.390;2022-12-07T05:40:45;55.17;;;27.35;;
55364;SDS011;41245;45.384;20.390;2022-12-07T05:43:11;59.53;;;28.85;;
55364;SDS011;41245;45.384;20.390;2022-12-07T05:45:37;62.03;;;30.20;;
55364;SDS011;41245;45.384;20.390;2022-12-07T05:48:03;65.95;;;29.92;;
55364;SDS011;41245;45.384;20.390;2022-12-07T05:50:28;62.05;;;28.50;;
55364;SDS011;41245;45.384;20.390;2022-12-07T05:52:54;59.25;;;30.00;;
55364;SDS011;41245;45.384;20.390;2022-12-07T05:55:20;53.92;;;28.15;;
55364;SDS011;41245;45.384;20.390;2022-12-07T05:57:46;64.38;;;31.00;;
55364;SDS011;41245;45.384;20.390;2022-12-07T06:00:30;59.92;;;28.55;;
55364;SDS011;41245;45.384;20.390;2022-12-07T06:02:56;59.10;;;27.95;;
55364;SDS011;41245;45.384;20.390;2022-12-07T06:05:22;59.00;;;30.42;;
55364;SDS011;41245;45.384;20.390;2022-12-07T06:07:48;75.47;;;36.65;;
55364;SDS011;41245;45.384;20.390;2022-12-07T06:10:14;63.10;;;31.92;;
55364;SDS011;41245;45.384;20.390;2022-12-07T06:12:40;60.17;;;30.85;;
55364;SDS011;41245;45.384;20.390;2022-12-07T06:15:08;65.50;;;32.50;;
55364;SDS011;41245;45.384;20.390;2022-12-07T06:17:34;65.20;;;35.33;;
55364;SDS011;41245;45.384;20.390;2022-12-07T06:20:00;60.42;;;32.88;;
55364;SDS011;41245;45.384;20.390;2022-12-07T06:22:26;59.88;;;29.23;;
55364;SDS011;41245;45.384;20.390;2022-12-07T06:24:53;64.50;;;32.63;;
55364;SDS011;41245;45.384;20.390;2022-12-07T06:27:18;53.72;;;29.05;;
55364;SDS011;41245;45.384;20.390;2022-12-07T06:29:44;55.85;;;28.20;;
55364;SDS011;41245;45.384;20.390;2022-12-07T06:32:10;54.90;;;28.73;;
55364;SDS011;41245;45.384;20.390;2022-12-07T06:34:36;62.50;;;32.10;;
55364;SDS011;41245;45.384;20.390;2022-12-07T06:37:02;55.42;;;29.65;;
55364;SDS011;41245;45.384;20.390;2022-12-07T06:39:28;54.40;;;28.73;;
55364;SDS011;41245;45.384;20.390;2022-12-07T06:41:54;53.42;;;29.15;;
55364;SDS011;41245;45.384;20.390;2022-12-07T06:44:21;60.88;;;29.42;;
55364;SDS011;41245;45.384;20.390;2022-12-07T06:46:48;51.03;;;26.60;;
55364;SDS011;41245;45.384;20.390;2022-12-07T06:49:14;55.20;;;30.52;;
55364;SDS011;41245;45.384;20.390;2022-12-07T06:51:40;54.40;;;29.92;;
55364;SDS011;41245;45.384;20.390;2022-12-07T06:54:09;57.15;;;30.63;;
55364;SDS011;41245;45.384;20.390;2022-12-07T06:56:36;59.78;;;29.35;;
55364;SDS011;41245;45.384;20.390;2022-12-07T06:59:03;50.88;;;26.60;;
55364;SDS011;41245;45.384;20.390;2022-12-07T07:01:30;37.63;;;23.95;;
55364;SDS011;41245;45.384;20.390;2022-12-07T07:03:56;38.47;;;22.67;;
55364;SDS011;41245;45.384;20.390;2022-12-07T07:06:21;38.03;;;22.65;;
55364;SDS011;41245;45.384;20.390;2022-12-07T07:08:47;34.33;;;20.52;;
55364;SDS011;41245;45.384;20.390;2022-12-07T07:11:13;38.92;;;21.58;;
55364;SDS011;41245;45.384;20.390;2022-12-07T07:13:39;34.80;;;20.23;;
55364;SDS011;41245;45.384;20.390;2022-12-07T07:16:05;32.35;;;18.08;;
55364;SDS011;41245;45.384;20.390;2022-12-07T07:18:31;29.67;;;18.67;;
55364;SDS011;41245;45.384;20.390;2022-12-07T07:20:57;29.55;;;17.95;;
55364;SDS011;41245;45.384;20.390;2022-12-07T07:23:23;37.33;;;21.60;;
55364;SDS011;41245;45.384;20.390;2022-12-07T07:25:49;35.72;;;20.25;;
55364;SDS011;41245;45.384;20.390;2022-12-07T07:28:15;27.67;;;16.60;;
55364;SDS011;41245;45.384;20.390;2022-12-07T07:30:41;21.55;;;11.82;;
55364;SDS011;41245;45.384;20.390;2022-12-07T07:33:07;30.48;;;17.30;;
55364;SDS011;41245;45.384;20.390;2022-12-07T07:35:34;36.13;;;16.70;;
55364;SDS011;41245;45.384;20.390;2022-12-07T07:38:00;33.65;;;18.80;;
55364;SDS011;41245;45.384;20.390;2022-12-07T07:40:26;39.38;;;19.58;;
55364;SDS011;41245;45.384;20.390;2022-12-07T07:42:54;38.40;;;19.05;;
55364;SDS011;41245;45.384;20.390;2022-12-07T07:45:20;38.90;;;20.38;;
55364;SDS011;41245;45.384;20.390;2022-12-07T07:47:47;39.63;;;20.73;;
55364;SDS011;41245;45.384;20.390;2022-12-07T07:50:14;38.00;;;19.92;;
55364;SDS011;41245;45.384;20.390;2022-12-07T07:52:41;48.58;;;24.30;;
55364;SDS011;41245;45.384;20.390;2022-12-07T07:55:06;84.90;;;34.72;;
55364;SDS011;41245;45.384;20.390;2022-12-07T07:57:37;84.40;;;38.25;;
55364;SDS011;41245;45.384;20.390;2022-12-07T08:00:07;47.38;;;22.83;;
55364;SDS011;41245;45.384;20.390;2022-12-07T08:02:35;60.20;;;30.13;;
55364;SDS011;41245;45.384;20.390;2022-12-07T08:05:01;46.55;;;23.88;;
55364;SDS011;41245;45.384;20.390;2022-12-07T08:07:27;41.50;;;23.67;;
55364;SDS011;41245;45.384;20.390;2022-12-07T08:09:53;45.47;;;22.30;;
55364;SDS011;41245;45.384;20.390;2022-12-07T08:12:19;59.30;;;27.67;;
55364;SDS011;41245;45.384;20.390;2022-12-07T08:14:45;52.85;;;26.33;;
55364;SDS011;41245;45.384;20.390;2022-12-07T08:17:10;45.35;;;23.98;;
55364;SDS011;41245;45.384;20.390;2022-12-07T08:19:37;38.92;;;19.80;;
55364;SDS011;41245;45.384;20.390;2022-12-07T08:22:03;35.70;;;20.10;;
55364;SDS011;41245;45.384;20.390;2022-12-07T08:24:29;35.75;;;20.05;;
55364;SDS011;41245;45.384;20.390;2022-12-07T08:26:54;36.30;;;20.83;;
55364;SDS011;41245;45.384;20.390;2022-12-07T08:29:20;37.38;;;18.85;;
55364;SDS011;41245;45.384;20.390;2022-12-07T08:31:46;37.20;;;19.77;;
55364;SDS011;41245;45.384;20.390;2022-12-07T08:34:12;40.10;;;21.23;;
55364;SDS011;41245;45.384;20.390;2022-12-07T08:36:39;38.85;;;20.10;;
55364;SDS011;41245;45.384;20.390;2022-12-07T08:39:05;42.67;;;25.63;;
55364;SDS011;41245;45.384;20.390;2022-12-07T08:41:31;49.00;;;26.73;;
55364;SDS011;41245;45.384;20.390;2022-12-07T08:43:57;44.80;;;24.23;;
55364;SDS011;41245;45.384;20.390;2022-12-07T08:51:19;36.72;;;18.55;;
55364;SDS011;41245;45.384;20.390;2022-12-07T08:53:47;33.63;;;19.77;;
55364;SDS011;41245;45.384;20.390;2022-12-07T08:56:14;37.80;;;20.05;;
55364;SDS011;41245;45.384;20.390;2022-12-07T08:58:39;40.03;;;22.10;;
55364;SDS011;41245;45.384;20.390;2022-12-07T09:01:06;36.67;;;20.55;;
55364;SDS011;41245;45.384;20.390;2022-12-07T09:03:32;35.97;;;19.92;;
55364;SDS011;41245;45.384;20.390;2022-12-07T09:05:58;39.33;;;22.88;;
55364;SDS011;41245;45.384;20.390;2022-12-07T09:08:26;38.58;;;21.20;;
55364;SDS011;41245;45.384;20.390;2022-12-07T09:10:55;35.85;;;20.30;;
55364;SDS011;41245;45.384;20.390;2022-12-07T09:13:21;39.08;;;19.70;;
55364;SDS011;41245;45.384;20.390;2022-12-07T09:15:47;45.95;;;21.63;;
55364;SDS011;41245;45.384;20.390;2022-12-07T09:18:13;42.35;;;22.50;;
55364;SDS011;41245;45.384;20.390;2022-12-07T09:20:39;44.08;;;23.83;;
55364;SDS011;41245;45.384;20.390;2022-12-07T09:23:05;42.00;;;21.65;;
55364;SDS011;41245;45.384;20.390;2022-12-07T09:25:32;50.28;;;22.85;;
55364;SDS011;41245;45.384;20.390;2022-12-07T09:27:58;39.60;;;22.75;;
55364;SDS011;41245;45.384;20.390;2022-12-07T09:30:25;44.67;;;24.83;;
55364;SDS011;41245;45.384;20.390;2022-12-07T09:32:55;39.67;;;21.20;;
55364;SDS011;41245;45.384;20.390;2022-12-07T09:35:22;44.38;;;22.48;;
55364;SDS011;41245;45.384;20.390;2022-12-07T09:37:50;41.83;;;22.98;;
55364;SDS011;41245;45.384;20.390;2022-12-07T09:40:17;39.03;;;21.27;;
55364;SDS011;41245;45.384;20.390;2022-12-07T09:42:47;38.08;;;19.13;;
55364;SDS011;41245;45.384;20.390;2022-12-07T09:45:17;30.08;;;16.73;;
55364;SDS011;41245;45.384;20.390;2022-12-07T09:47:46;37.97;;;20.17;;
55364;SDS011;41245;45.384;20.390;2022-12-07T09:50:23;34.22;;;19.63;;
55364;SDS011;41245;45.384;20.390;2022-12-07T09:52:50;30.20;;;18.73;;
55364;SDS011;41245;45.384;20.390;2022-12-07T09:55:22;34.70;;;18.83;;
55364;SDS011;41245;45.384;20.390;2022-12-07T09:57:52;29.38;;;17.70;;
55364;SDS011;41245;45.384;20.390;2022-12-07T10:00:19;29.98;;;16.70;;
55364;SDS011;41245;45.384;20.390;2022-12-07T10:02:51;30.42;;;14.63;;
55364;SDS011;41245;45.384;20.390;2022-12-07T10:05:28;33.33;;;16.48;;
55364;SDS011;41245;45.384;20.390;2022-12-07T10:08:07;28.60;;;15.38;;
55364;SDS011;41245;45.384;20.390;2022-12-07T10:10:36;27.67;;;16.27;;
55364;SDS011;41245;45.384;20.390;2022-12-07T10:13:07;25.60;;;16.35;;
55364;SDS011;41245;45.384;20.390;2022-12-07T10:15:42;29.33;;;14.57;;
55364;SDS011;41245;45.384;20.390;2022-12-07T10:18:19;24.48;;;14.55;;
55364;SDS011;41245;45.384;20.390;2022-12-07T10:20:59;35.65;;;17.45;;
55364;SDS011;41245;45.384;20.390;2022-12-07T10:23:37;31.02;;;17.95;;
55364;SDS011;41245;45.384;20.390;2022-12-07T10:29:16;35.22;;;19.00;;
55364;SDS011;41245;45.384;20.390;2022-12-07T10:32:02;30.48;;;16.50;;
55364;SDS011;41245;45.384;20.390;2022-12-07T10:34:51;34.80;;;17.98;;
55364;SDS011;41245;45.384;20.390;2022-12-07T10:37:42;32.60;;;18.05;;
55364;SDS011;41245;45.384;20.390;2022-12-07T10:40:29;30.70;;;18.35;;
55364;SDS011;41245;45.384;20.390;2022-12-07T10:59:03;27.50;;;14.98;;
55364;SDS011;41245;45.384;20.390;2022-12-07T11:01:54;34.83;;;21.70;;
55364;SDS011;41245;45.384;20.390;2022-12-07T11:07:28;27.65;;;16.20;;
55364;SDS011;41245;45.384;20.390;2022-12-07T11:10:08;26.25;;;15.30;;
55364;SDS011;41245;45.384;20.390;2022-12-07T11:18:02;20.58;;;12.60;;
55364;SDS011;41245;45.384;20.390;2022-12-07T11:21:15;17.85;;;11.82;;
55364;SDS011;41245;45.384;20.390;2022-12-07T11:24:01;19.35;;;11.45;;
55364;SDS011;41245;45.384;20.390;2022-12-07T11:26:35;19.63;;;12.80;;
55364;SDS011;41245;45.384;20.390;2022-12-07T11:34:36;18.17;;;11.68;;
55364;SDS011;41245;45.384;20.390;2022-12-07T11:37:03;17.50;;;11.80;;
55364;SDS011;41245;45.384;20.390;2022-12-07T11:39:39;21.60;;;13.00;;
55364;SDS011;41245;45.384;20.390;2022-12-07T11:42:14;20.77;;;11.85;;
55364;SDS011;41245;45.384;20.390;2022-12-07T11:45:17;22.80;;;14.05;;
55364;SDS011;41245;45.384;20.390;2022-12-07T11:47:57;172.05;;;70.38;;
55364;SDS011;41245;45.384;20.390;2022-12-07T11:53:14;65.43;;;31.90;;
55364;SDS011;41245;45.384;20.390;2022-12-07T11:56:00;25.08;;;14.80;;
55364;SDS011;41245;45.384;20.390;2022-12-07T12:01:11;18.35;;;12.07;;
55364;SDS011;41245;45.384;20.390;2022-12-07T12:06:10;20.90;;;11.43;;
55364;SDS011;41245;45.384;20.390;2022-12-07T12:08:43;21.83;;;12.23;;
55364;SDS011;41245;45.384;20.390;2022-12-07T12:22:46;29.70;;;13.30;;
55364;SDS011;41245;45.384;20.390;2022-12-07T12:25:48;25.02;;;14.75;;
55364;SDS011;41245;45.384;20.390;2022-12-07T12:31:09;22.88;;;12.88;;
55364;SDS011;41245;45.384;20.390;2022-12-07T12:33:43;20.02;;;12.32;;
55364;SDS011;41245;45.384;20.390;2022-12-07T12:56:58;31.65;;;16.73;;
55364;SDS011;41245;45.384;20.390;2022-12-07T12:59:26;22.83;;;13.77;;
55364;SDS011;41245;45.384;20.390;2022-12-07T13:01:56;24.20;;;14.25;;
55364;SDS011;41245;45.384;20.390;2022-12-07T13:04:59;22.77;;;14.35;;
55364;SDS011;41245;45.384;20.390;2022-12-07T13:10:32;31.70;;;17.45;;
55364;SDS011;41245;45.384;20.390;2022-12-07T13:18:22;28.20;;;15.48;;
55364;SDS011;41245;45.384;20.390;2022-12-07T13:23:38;24.27;;;14.02;;
55364;SDS011;41245;45.384;20.390;2022-12-07T13:29:11;22.83;;;13.98;;
55364;SDS011;41245;45.384;20.390;2022-12-07T13:31:43;36.22;;;16.38;;
55364;SDS011;41245;45.384;20.390;2022-12-07T13:36:59;32.45;;;16.75;;
55364;SDS011;41245;45.384;20.390;2022-12-07T13:39:27;28.88;;;16.65;;
55364;SDS011;41245;45.384;20.390;2022-12-07T13:41:54;33.65;;;17.85;;
55364;SDS011;41245;45.384;20.390;2022-12-07T13:44:25;41.55;;;21.85;;
55364;SDS011;41245;45.384;20.390;2022-12-07T13:49:50;47.38;;;21.58;;
55364;SDS011;41245;45.384;20.390;2022-12-07T13:52:19;51.10;;;22.00;;
55364;SDS011;41245;45.384;20.390;2022-12-07T13:54:57;48.70;;;23.95;;
55364;SDS011;41245;45.384;20.390;2022-12-07T13:57:34;50.90;;;25.63;;
55364;SDS011;41245;45.384;20.390;2022-12-07T14:00:02;61.38;;;32.97;;
55364;SDS011;41245;45.384;20.390;2022-12-07T14:02:55;32.55;;;18.67;;
55364;SDS011;41245;45.384;20.390;2022-12-07T14:05:25;39.88;;;23.73;;
55364;SDS011;41245;45.384;20.390;2022-12-07T14:07:58;33.95;;;19.75;;
55364;SDS011;41245;45.384;20.390;2022-12-07T14:10:25;40.83;;;22.40;;
55364;SDS011;41245;45.384;20.390;2022-12-07T14:12:55;36.50;;;19.90;;
55364;SDS011;41245;45.384;20.390;2022-12-07T14:15:22;40.65;;;21.80;;
55364;SDS011;41245;45.384;20.390;2022-12-07T14:17:53;54.83;;;27.38;;
55364;SDS011;41245;45.384;20.390;2022-12-07T14:23:03;47.00;;;25.85;;
55364;SDS011;41245;45.384;20.390;2022-12-07T14:25:51;45.30;;;25.65;;
55364;SDS011;41245;45.384;20.390;2022-12-07T14:28:25;64.07;;;33.63;;
55364;SDS011;41245;45.384;20.390;2022-12-07T14:30:56;59.30;;;29.73;;
55364;SDS011;41245;45.384;20.390;2022-12-07T14:33:23;53.10;;;27.95;;
55364;SDS011;41245;45.384;20.390;2022-12-07T14:35:49;42.70;;;24.35;;
55364;SDS011;41245;45.384;20.390;2022-12-07T14:38:15;39.78;;;23.98;;
55364;SDS011;41245;45.384;20.390;2022-12-07T14:40:43;42.13;;;23.40;;
55364;SDS011;41245;45.384;20.390;2022-12-07T14:43:10;43.08;;;23.98;;
55364;SDS011;41245;45.384;20.390;2022-12-07T14:45:38;39.72;;;21.20;;
55364;SDS011;41245;45.384;20.390;2022-12-07T14:48:05;44.25;;;24.92;;
55364;SDS011;41245;45.384;20.390;2022-12-07T14:50:34;44.20;;;22.50;;
55364;SDS011;41245;45.384;20.390;2022-12-07T14:53:03;36.90;;;20.55;;
55364;SDS011;41245;45.384;20.390;2022-12-07T14:55:35;37.55;;;21.52;;
55364;SDS011;41245;45.384;20.390;2022-12-07T14:58:01;43.22;;;23.80;;
55364;SDS011;41245;45.384;20.390;2022-12-07T15:00:28;33.53;;;19.05;;
55364;SDS011;41245;45.384;20.390;2022-12-07T15:02:54;27.55;;;19.25;;
55364;SDS011;41245;45.384;20.390;2022-12-07T15:05:21;32.38;;;18.10;;
55364;SDS011;41245;45.384;20.390;2022-12-07T15:07:48;27.45;;;18.10;;
55364;SDS011;41245;45.384;20.390;2022-12-07T15:10:27;30.48;;;17.95;;
55364;SDS011;41245;45.384;20.390;2022-12-07T15:12:57;72.28;;;33.40;;
55364;SDS011;41245;45.384;20.390;2022-12-07T15:15:43;57.60;;;29.38;;
55364;SDS011;41245;45.384;20.390;2022-12-07T15:18:09;31.40;;;17.90;;
55364;SDS011;41245;45.384;20.390;2022-12-07T15:20:34;40.42;;;22.88;;
55364;SDS011;41245;45.384;20.390;2022-12-07T15:23:00;34.65;;;19.48;;
55364;SDS011;41245;45.384;20.390;2022-12-07T15:25:26;34.92;;;20.30;;
55364;SDS011;41245;45.384;20.390;2022-12-07T15:27:51;32.22;;;18.20;;
55364;SDS011;41245;45.384;20.390;2022-12-07T15:30:17;32.78;;;19.50;;
55364;SDS011;41245;45.384;20.390;2022-12-07T15:32:43;34.00;;;19.08;;
55364;SDS011;41245;45.384;20.390;2022-12-07T15:35:09;35.97;;;21.35;;
55364;SDS011;41245;45.384;20.390;2022-12-07T15:37:34;31.38;;;19.05;;
55364;SDS011;41245;45.384;20.390;2022-12-07T15:40:00;32.72;;;19.95;;
55364;SDS011;41245;45.384;20.390;2022-12-07T15:42:26;34.42;;;20.65;;
55364;SDS011;41245;45.384;20.390;2022-12-07T15:44:52;32.17;;;19.90;;
55364;SDS011;41245;45.384;20.390;2022-12-07T15:47:30;33.90;;;21.13;;
55364;SDS011;41245;45.384;20.390;2022-12-07T15:50:01;32.15;;;19.77;;
55364;SDS011;41245;45.384;20.390;2022-12-07T15:52:32;33.55;;;19.70;;
55364;SDS011;41245;45.384;20.390;2022-12-07T15:54:58;35.85;;;20.10;;
55364;SDS011;41245;45.384;20.390;2022-12-07T15:57:30;37.70;;;23.02;;
55364;SDS011;41245;45.384;20.390;2022-12-07T15:59:56;47.70;;;25.65;;
55364;SDS011;41245;45.384;20.390;2022-12-07T16:02:22;47.28;;;24.88;;
55364;SDS011;41245;45.384;20.390;2022-12-07T16:04:49;46.08;;;26.60;;
55364;SDS011;41245;45.384;20.390;2022-12-07T16:07:15;41.35;;;24.02;;
55364;SDS011;41245;45.384;20.390;2022-12-07T16:09:42;72.00;;;38.72;;
55364;SDS011;41245;45.384;20.390;2022-12-07T16:12:08;61.08;;;35.38;;
55364;SDS011;41245;45.384;20.390;2022-12-07T16:14:34;75.32;;;42.58;;
55364;SDS011;41245;45.384;20.390;2022-12-07T16:17:00;62.03;;;35.25;;
55364;SDS011;41245;45.384;20.390;2022-12-07T16:19:26;59.03;;;34.47;;
55364;SDS011;41245;45.384;20.390;2022-12-07T16:21:52;66.00;;;37.67;;
55364;SDS011;41245;45.384;20.390;2022-12-07T16:24:18;77.10;;;43.88;;
55364;SDS011;41245;45.384;20.390;2022-12-07T16:26:44;44.40;;;27.00;;
55364;SDS011;41245;45.384;20.390;2022-12-07T16:29:13;47.72;;;29.65;;
55364;SDS011;41245;45.384;20.390;2022-12-07T16:31:39;56.53;;;31.35;;
55364;SDS011;41245;45.384;20.390;2022-12-07T16:34:06;64.03;;;36.65;;
55364;SDS011;41245;45.384;20.390;2022-12-07T16:36:32;50.08;;;27.02;;
55364;SDS011;41245;45.384;20.390;2022-12-07T16:38:58;44.90;;;27.63;;
55364;SDS011;41245;45.384;20.390;2022-12-07T16:41:25;46.25;;;26.85;;
55364;SDS011;41245;45.384;20.390;2022-12-07T16:43:51;62.97;;;33.45;;
55364;SDS011;41245;45.384;20.390;2022-12-07T16:46:16;78.28;;;35.97;;